Time;durP1;ratioP1;P1;durP2;ratioP2;P2;SDS_P1;SDS_P2;PMS_P1;PMS_P2;Temp;Humidity;BMP_temperature;BMP_pressure;BME280_temperature;BME280_humidity;BME280_pressure;Samples;Min_cycle;Max_cycle;Signal;HPM_P1;HPM_P2
2021/04/19 00:01:41;;;;;;;42.90;19.10;;;;;;;13.74;54.96;101739.22;5136961;27;20781;-51
2021/04/19 00:04:08;;;;;;;33.03;19.03;;;;;;;13.66;55.35;101740.59;5138296;27;20454;-54
2021/04/19 00:06:35;;;;;;;41.23;20.67;;;;;;;13.72;55.15;101742.56;5137066;27;20480;-52
2021/04/19 00:09:02;;;;;;;35.53;18.73;;;;;;;13.83;54.43;101738.75;5138131;27;20957;-50
2021/04/19 00:11:29;;;;;;;40.83;19.43;;;;;;;13.64;54.88;101735.31;5137096;27;20480;-54
2021/04/19 00:13:56;;;;;;;34.30;20.30;;;;;;;13.75;54.64;101734.94;5137854;27;20560;-51
2021/04/19 00:16:23;;;;;;;37.67;20.10;;;;;;;13.97;54.20;101728.97;5137039;27;20480;-51
2021/04/19 00:18:50;;;;;;;40.03;20.40;;;;;;;13.77;54.32;101722.91;5137917;27;20456;-51
2021/04/19 00:21:17;;;;;;;35.27;20.13;;;;;;;13.74;54.37;101725.38;5136895;27;20488;-55
2021/04/19 00:23:43;;;;;;;43.83;21.33;;;;;;;13.28;55.68;101725.03;5137882;27;20570;-49
2021/04/19 00:26:10;;;;;;;48.00;21.63;;;;;;;13.20;56.01;101728.97;5136996;27;20454;-47
2021/04/19 00:28:36;;;;;;;39.70;20.90;;;;;;;13.54;55.34;101727.94;5138010;27;20460;-51
2021/04/19 00:31:04;;;;;;;40.30;21.20;;;;;;;13.41;55.21;101725.59;5136280;27;20890;-50
2021/04/19 00:33:31;;;;;;;48.47;21.83;;;;;;;13.57;54.71;101728.09;5137508;27;20855;-52
2021/04/19 00:35:58;;;;;;;48.37;22.00;;;;;;;13.58;54.80;101724.69;5136857;27;20580;-51
2021/04/19 00:38:25;;;;;;;59.40;21.67;;;;;;;13.61;54.78;101723.94;5137937;27;20460;-50
2021/04/19 00:40:52;;;;;;;44.57;22.37;;;;;;;13.16;55.88;101719.28;5136459;27;20567;-54
2021/04/19 00:43:19;;;;;;;40.93;23.30;;;;;;;13.71;54.46;101722.63;5137556;27;20454;-52
2021/04/19 00:45:47;;;;;;;45.43;22.27;;;;;;;13.66;54.27;101726.72;5136948;27;20473;-52
2021/04/19 00:48:14;;;;;;;35.50;21.03;;;;;;;13.57;54.48;101722.91;5136595;27;20457;-49
2021/04/19 00:50:41;;;;;;;40.43;22.50;;;;;;;13.75;53.86;101732.34;5136316;27;20495;-51
2021/04/19 00:53:08;;;;;;;37.60;21.80;;;;;;;14.12;52.30;101735.63;5136812;27;21009;-51
2021/04/19 00:55:34;;;;;;;36.33;21.87;;;;;;;13.93;53.08;101739.16;5136349;27;20563;-52
2021/04/19 00:58:01;;;;;;;44.20;22.43;;;;;;;13.96;52.88;101736.69;5137413;27;20456;-53
2021/04/19 01:00:30;;;;;;;47.43;22.77;;;;;;;13.75;53.51;101738.41;5136221;27;20469;-51
2021/04/19 01:02:57;;;;;;;48.13;23.97;;;;;;;13.63;53.66;101737.84;5136622;27;21034;-52
2021/04/19 01:05:28;;;;;;;44.10;23.90;;;;;;;13.88;52.95;101739.84;5136309;27;20579;-52
2021/04/19 01:07:55;;;;;;;43.73;22.87;;;;;;;13.85;52.97;101734.50;5137387;27;20453;-53
2021/04/19 01:10:21;;;;;;;47.73;24.40;;;;;;;13.73;52.81;101744.31;5136296;27;20491;-50
2021/04/19 01:12:48;;;;;;;49.30;24.83;;;;;;;13.35;54.36;101739.16;5136605;27;20483;-53
2021/04/19 01:15:15;;;;;;;40.33;23.17;;;;;;;13.07;54.99;101735.28;5136312;27;20534;-54
2021/04/19 01:17:43;;;;;;;40.57;22.47;;;;;;;13.13;55.22;101738.16;5136909;27;20461;-50
2021/04/19 01:20:13;;;;;;;45.60;23.00;;;;;;;13.16;54.86;101740.00;5136202;27;21247;-51
2021/04/19 01:22:41;;;;;;;51.27;24.03;;;;;;;13.08;54.70;101743.13;5136638;27;20568;-48
2021/04/19 01:25:11;;;;;;;39.60;21.10;;;;;;;12.87;55.12;101742.13;5135865;27;20498;-53
2021/04/19 01:27:38;;;;;;;45.73;23.37;;;;;;;12.93;55.62;101743.28;5136904;27;20808;-49
2021/04/19 01:30:05;;;;;;;48.70;23.30;;;;;;;12.92;55.18;101749.28;5138306;27;20507;-53
2021/04/19 01:32:33;;;;;;;49.90;23.20;;;;;;;12.74;55.18;101741.53;5136543;27;20507;-48
2021/04/19 01:35:00;;;;;;;42.40;23.83;;;;;;;12.82;55.00;101749.66;5135399;27;20878;-48
2021/04/19 01:37:27;;;;;;;40.93;22.90;;;;;;;12.45;55.97;101753.91;5136743;27;20476;-51
2021/04/19 01:39:55;;;;;;;47.50;26.20;;;;;;;12.48;55.92;101753.16;5135086;27;20467;-49
2021/04/19 01:42:22;;;;;;;45.33;24.40;;;;;;;12.55;56.00;101761.31;5136202;27;20519;-52
2021/04/19 01:44:48;;;;;;;55.07;25.57;;;;;;;12.48;56.09;101761.84;5135406;27;20948;-50
2021/04/19 01:47:15;;;;;;;53.90;24.50;;;;;;;12.92;54.54;101751.00;5136761;27;20518;-52
2021/04/19 01:49:42;;;;;;;59.40;25.73;;;;;;;12.89;54.27;101750.84;5135782;27;20875;-49
2021/04/19 01:52:09;;;;;;;48.80;26.23;;;;;;;13.10;53.70;101750.97;5138667;27;20461;-53
2021/04/19 01:54:35;;;;;;;52.07;25.50;;;;;;;13.00;54.40;101760.00;5132710;27;20490;-53
2021/04/19 01:57:04;;;;;;;219.23;97.90;;;;;;;12.19;59.76;101762.97;5136315;28;20497;-51
2021/04/19 01:59:31;;;;;;;57.10;32.90;;;;;;;12.36;57.58;101761.22;5140385;27;20466;-50
2021/04/19 02:02:03;;;;;;;73.03;35.83;;;;;;;12.20;58.20;101763.00;5142725;27;20521;-51
2021/04/19 02:04:39;;;;;;;70.23;35.63;;;;;;;12.49;57.13;101761.03;5143359;27;20459;-53
2021/04/19 02:07:09;;;;;;;69.93;31.57;;;;;;;12.33;57.25;101764.53;5142923;27;20744;-49
2021/04/19 02:09:43;;;;;;;65.37;31.87;;;;;;;12.32;57.32;101756.69;5142583;27;20426;-52
2021/04/19 02:12:15;;;;;;;73.17;34.10;;;;;;;12.34;57.05;101755.97;5142880;27;20483;-50
2021/04/19 02:14:47;;;;;;;55.87;29.00;;;;;;;12.52;56.13;101753.41;5142226;27;20564;-51
2021/04/19 02:17:23;;;;;;;49.90;27.27;;;;;;;12.18;57.22;101754.28;5142879;27;20759;-50
2021/04/19 02:19:54;;;;;;;60.03;32.30;;;;;;;12.37;56.72;101757.81;5141785;27;20602;-52
2021/04/19 02:22:24;;;;;;;54.70;29.97;;;;;;;12.50;56.74;101755.03;5142858;27;20450;-50
2021/04/19 02:24:53;;;;;;;51.87;28.40;;;;;;;12.00;57.83;101761.97;5141623;27;20446;-53
2021/04/19 02:27:26;;;;;;;51.83;27.40;;;;;;;12.06;57.33;101758.84;5143065;27;20879;-51
2021/04/19 02:29:54;;;;;;;51.97;28.37;;;;;;;12.28;56.97;101745.31;5141846;27;20446;-54
2021/04/19 02:32:26;;;;;;;58.40;28.97;;;;;;;12.07;57.29;101750.25;5142931;27;20512;-51
2021/04/19 02:34:57;;;;;;;54.53;26.83;;;;;;;11.78;58.08;101759.97;5141640;27;20480;-51
2021/04/19 02:37:24;;;;;;;51.33;26.77;;;;;;;12.18;57.25;101746.53;5142969;27;20472;-46
2021/04/19 02:39:52;;;;;;;49.37;27.13;;;;;;;12.13;57.00;101753.16;5141973;27;20441;-49
2021/04/19 02:42:18;;;;;;;55.43;27.70;;;;;;;11.91;58.30;101749.44;5142452;27;20476;-50
2021/04/19 02:44:48;;;;;;;53.63;27.53;;;;;;;12.00;57.24;101739.56;5141977;27;20425;-55
2021/04/19 02:47:15;;;;;;;52.90;28.50;;;;;;;11.97;56.93;101738.53;5142929;27;20427;-51
2021/04/19 02:49:42;;;;;;;54.83;29.67;;;;;;;12.34;55.88;101749.88;5141740;27;20438;-53
2021/04/19 02:52:10;;;;;;;56.33;28.03;;;;;;;12.39;55.78;101746.75;5142378;27;20463;-50
2021/04/19 02:54:38;;;;;;;49.90;27.63;;;;;;;12.36;56.04;101748.28;5141950;27;20518;-51
2021/04/19 02:57:09;;;;;;;52.00;27.47;;;;;;;12.41;55.96;101747.69;5142378;27;20466;-51
2021/04/19 02:59:36;;;;;;;56.70;26.60;;;;;;;12.44;56.30;101762.50;5142042;27;20462;-50
2021/04/19 03:02:06;;;;;;;58.73;28.47;;;;;;;12.24;57.38;101758.88;5142190;27;20502;-51
2021/04/19 03:04:37;;;;;;;55.03;27.70;;;;;;;12.68;56.05;101751.59;5141996;27;20458;-50
2021/04/19 03:07:07;;;;;;;54.53;28.50;;;;;;;12.73;55.98;101765.66;5142420;27;20450;-51
2021/04/19 03:09:35;;;;;;;70.07;30.13;;;;;;;12.49;56.58;101761.03;5140990;27;20456;-49
2021/04/19 03:12:04;;;;;;;57.40;28.47;;;;;;;12.28;57.20;101766.91;5138651;27;20462;-52
2021/04/19 03:14:34;;;;;;;63.40;31.50;;;;;;;12.46;57.35;101760.84;5138594;27;20457;-55
2021/04/19 03:17:06;;;;;;;62.47;30.20;;;;;;;12.61;57.22;101750.38;5139095;27;20561;-52
2021/04/19 03:19:36;;;;;;;62.50;31.60;;;;;;;12.41;57.43;101747.69;5138267;27;20456;-51
2021/04/19 03:22:03;;;;;;;63.57;30.97;;;;;;;12.28;57.97;101745.31;5138632;27;20463;-48
2021/04/19 03:24:31;;;;;;;67.83;32.63;;;;;;;12.71;56.54;101741.34;5139951;27;20423;-55
2021/04/19 03:26:59;;;;;;;65.83;32.77;;;;;;;12.42;57.45;101743.41;5158974;27;20911;-52
2021/04/19 03:29:27;;;;;;;70.00;32.33;;;;;;;12.66;57.15;101745.41;5159964;27;20455;-51
2021/04/19 03:31:55;;;;;;;71.27;31.40;;;;;;;12.70;56.98;101742.19;5158340;27;20497;-49
2021/04/19 03:34:25;;;;;;;77.97;33.83;;;;;;;12.52;57.49;101749.94;5159653;27;20456;-50
2021/04/19 03:36:56;;;;;;;72.83;33.73;;;;;;;12.35;57.84;101751.69;5158732;27;20482;-49
2021/04/19 03:39:24;;;;;;;68.67;32.43;;;;;;;12.33;57.64;101759.38;5159565;27;20745;-51
2021/04/19 03:41:54;;;;;;;83.97;34.23;;;;;;;11.97;59.41;101761.81;5158413;27;20549;-49
2021/04/19 03:44:23;;;;;;;69.07;34.27;;;;;;;12.25;58.71;101771.91;5159653;27;20434;-52
2021/04/19 03:46:51;;;;;;;80.10;33.07;;;;;;;12.22;58.69;101760.50;5155134;27;20838;-50
2021/04/19 03:49:21;;;;;;;66.70;33.40;;;;;;;12.49;57.98;101766.19;5159378;27;20430;-51
2021/04/19 03:51:48;;;;;;;79.67;33.73;;;;;;;12.67;58.31;101770.53;5158214;27;20528;-50
2021/04/19 03:54:15;;;;;;;73.33;32.23;;;;;;;12.27;58.57;101759.06;5159298;27;20434;-47
2021/04/19 03:56:43;;;;;;;90.47;33.00;;;;;;;12.28;58.52;101766.00;5158286;27;20541;-50
2021/04/19 03:59:11;;;;;;;83.43;34.83;;;;;;;12.22;58.61;101763.09;5159160;27;20457;-52
2021/04/19 04:01:40;;;;;;;72.47;29.53;;;;;;;11.97;59.39;101760.13;5157953;27;20450;-46
2021/04/19 04:04:07;;;;;;;63.30;31.43;;;;;;;12.13;58.96;101756.66;5159315;27;20451;-47
2021/04/19 04:06:34;;;;;;;63.70;28.80;;;;;;;11.83;59.71;101756.81;5158129;27;20529;-52
2021/04/19 04:09:02;;;;;;;60.17;29.40;;;;;;;12.01;58.97;101745.66;5159134;27;20516;-49
2021/04/19 04:11:32;;;;;;;59.07;27.13;;;;;;;11.99;58.82;101753.31;5157900;27;20454;-51
2021/04/19 04:13:59;;;;;;;74.03;29.10;;;;;;;12.00;58.71;101755.09;5158857;27;20473;-49
2021/04/19 04:16:25;;;;;;;63.93;28.40;;;;;;;12.27;58.06;101754.75;5157786;27;20475;-48
2021/04/19 04:18:52;;;;;;;74.53;30.37;;;;;;;12.39;57.58;101751.91;5158863;27;20426;-48
2021/04/19 04:21:19;;;;;;;60.43;28.60;;;;;;;12.25;58.08;101751.22;5157121;27;20478;-50
2021/04/19 04:23:46;;;;;;;60.57;29.93;;;;;;;12.32;57.90;101756.69;5157896;27;20475;-48
2021/04/19 04:26:13;;;;;;;74.27;29.20;;;;;;;12.25;58.20;101761.56;5157677;27;20446;-47
2021/04/19 04:28:40;;;;;;;70.30;31.50;;;;;;;12.15;58.86;101764.47;5158567;27;20876;-47
2021/04/19 04:31:09;;;;;;;63.23;31.50;;;;;;;12.24;58.48;101758.88;5157394;27;20479;-49
2021/04/19 04:33:36;;;;;;;79.67;31.07;;;;;;;12.28;58.03;101764.31;5158451;27;20562;-47
2021/04/19 04:36:03;;;;;;;64.27;29.97;;;;;;;12.06;58.88;101761.44;5157424;27;20793;-48
2021/04/19 04:38:31;;;;;;;58.83;29.00;;;;;;;11.99;59.20;101767.94;5158418;27;20426;-50
2021/04/19 04:40:58;;;;;;;57.07;27.07;;;;;;;12.20;58.70;101769.91;5156942;27;20758;-48
2021/04/19 04:43:30;;;;;;;74.43;28.43;;;;;;;12.04;58.58;101773.41;5158375;27;20478;-49
2021/04/19 04:46:02;;;;;;;56.67;28.67;;;;;;;12.06;59.49;101766.59;5157366;27;20769;-50
2021/04/19 04:48:31;;;;;;;69.10;28.70;;;;;;;12.26;58.69;101767.63;5158434;27;20461;-52
2021/04/19 04:51:02;;;;;;;51.80;26.70;;;;;;;12.61;57.67;101762.44;5157061;27;20529;-51
2021/04/19 04:53:35;;;;;;;53.50;25.77;;;;;;;12.39;58.47;101761.34;5157687;27;20566;-48
2021/04/19 04:56:02;;;;;;;46.13;23.97;;;;;;;12.06;58.80;101758.84;5157064;27;20464;-46
2021/04/19 04:58:30;;;;;;;55.33;23.80;;;;;;;12.15;58.62;101765.38;5158229;27;20483;-48
2021/04/19 05:00:57;;;;;;;54.53;21.83;;;;;;;11.81;59.41;101757.53;5156648;27;20773;-52
2021/04/19 05:03:24;;;;;;;83.17;24.43;;;;;;;11.84;60.05;101760.28;5157859;27;20445;-46
2021/04/19 05:05:52;;;;;;;59.53;23.63;;;;;;;12.18;58.93;101759.47;5156895;27;20452;-48
2021/04/19 05:08:19;;;;;;;48.90;22.23;;;;;;;12.16;58.95;101758.50;5157887;27;20453;-49
2021/04/19 05:10:46;;;;;;;52.03;24.50;;;;;;;12.21;58.67;101764.78;5156898;27;20440;-51
2021/04/19 05:13:13;;;;;;;80.33;25.87;;;;;;;11.99;59.77;101761.06;5157494;27;20507;-48
2021/04/19 05:15:43;;;;;;;66.30;24.57;;;;;;;11.87;59.92;101769.09;5156852;27;20456;-48
2021/04/19 05:18:11;;;;;;;54.67;23.43;;;;;;;11.91;60.06;101770.13;5157547;27;20450;-52
2021/04/19 05:20:38;;;;;;;53.20;23.07;;;;;;;12.29;59.06;101767.78;5156492;27;20766;-49
2021/04/19 05:23:06;;;;;;;47.80;22.30;;;;;;;12.34;58.98;101770.59;5157234;27;20563;-49
2021/04/19 05:25:32;;;;;;;57.50;23.40;;;;;;;12.19;59.46;101774.19;5153237;27;20434;-47
2021/04/19 05:27:59;;;;;;;50.73;22.33;;;;;;;12.20;59.44;101778.53;5157706;27;20806;-49
2021/04/19 05:30:27;;;;;;;52.80;24.10;;;;;;;12.29;59.31;101784.19;5156436;27;20932;-48
2021/04/19 05:32:59;;;;;;;52.50;25.10;;;;;;;12.26;59.59;101784.03;5156518;27;20546;-47
2021/04/19 05:35:26;;;;;;;50.90;23.30;;;;;;;12.38;59.01;101777.69;5156281;27;20478;-47
2021/04/19 05:37:53;;;;;;;49.57;22.90;;;;;;;12.36;59.40;101787.09;5157639;27;20486;-48
2021/04/19 05:40:20;;;;;;;82.83;23.60;;;;;;;12.28;60.01;101784.13;5156462;27;20507;-48
2021/04/19 05:42:47;;;;;;;52.90;24.07;;;;;;;12.39;59.71;101775.19;5156834;27;20907;-47
2021/04/19 05:45:15;;;;;;;53.50;23.03;;;;;;;12.37;59.71;101788.88;5156334;27;20457;-51
2021/04/19 05:47:43;;;;;;;58.30;26.10;;;;;;;12.54;59.48;101782.84;5157251;27;20455;-51
2021/04/19 05:50:12;;;;;;;46.57;22.83;;;;;;;12.64;59.33;101783.28;5156204;27;20453;-50
2021/04/19 05:52:39;;;;;;;50.97;24.43;;;;;;;12.53;59.09;101794.03;5156606;27;20446;-49
2021/04/19 05:55:07;;;;;;;59.97;24.90;;;;;;;12.52;59.47;101792.22;5152446;27;20468;-50
2021/04/19 05:57:37;;;;;;;60.43;25.60;;;;;;;12.50;59.40;101791.25;5157197;27;20475;-51
2021/04/19 06:00:07;;;;;;;49.77;22.37;;;;;;;12.73;59.31;101791.53;5156198;27;20474;-53
2021/04/19 06:02:42;;;;;;;61.20;26.20;;;;;;;12.77;59.08;101788.25;5156694;27;20472;-52
2021/04/19 06:05:18;;;;;;;51.57;25.27;;;;;;;12.93;58.55;101795.09;5156096;27;20561;-53
2021/04/19 06:07:46;;;;;;;49.60;22.90;;;;;;;12.63;59.30;101791.88;5157089;27;20542;-51
2021/04/19 06:10:15;;;;;;;55.80;25.27;;;;;;;12.67;59.71;101792.09;5156047;27;20478;-51
2021/04/19 06:12:46;;;;;;;52.50;22.40;;;;;;;12.45;60.14;101787.56;5156588;27;20782;-54
2021/04/19 06:15:14;;;;;;;95.87;25.50;;;;;;;13.07;58.65;101798.34;5156432;27;20480;-51
2021/04/19 06:17:44;;;;;;;45.90;22.50;;;;;;;12.93;58.49;101794.22;5157126;27;20564;-50
2021/04/19 06:20:14;;;;;;;55.37;24.77;;;;;;;12.70;59.23;101791.38;5156191;27;20478;-50
2021/04/19 06:22:42;;;;;;;53.63;22.70;;;;;;;13.16;58.45;101789.22;5156463;27;20930;-50
2021/04/19 06:25:10;;;;;;;54.10;25.30;;;;;;;13.23;58.78;101793.91;5155709;27;20479;-49
2021/04/19 06:27:37;;;;;;;51.57;24.30;;;;;;;13.43;58.14;101793.97;5156962;27;20455;-50
2021/04/19 06:30:18;;;;;;;53.40;25.00;;;;;;;13.06;58.57;101798.25;5156394;27;20778;-52
2021/04/19 06:32:46;;;;;;;47.20;24.67;;;;;;;12.93;59.10;101797.66;5156419;27;20476;-49
2021/04/19 06:35:14;;;;;;;56.67;24.90;;;;;;;12.98;59.00;101803.09;5155854;27;20527;-49
2021/04/19 06:37:41;;;;;;;60.90;25.43;;;;;;;13.22;58.90;101799.88;5156648;27;20577;-50
2021/04/19 06:40:09;;;;;;;56.33;22.50;;;;;;;12.89;59.20;101798.34;5155832;27;20537;-51
2021/04/19 06:42:36;;;;;;;115.30;24.70;;;;;;;13.31;58.15;101789.97;5156449;27;20479;-50
2021/04/19 06:45:05;;;;;;;54.23;24.00;;;;;;;13.52;57.30;101789.22;5156155;27;20467;-48
2021/04/19 06:47:34;;;;;;;61.77;25.00;;;;;;;13.20;58.34;101785.97;5160760;27;20453;-47
2021/04/19 06:50:04;;;;;;;50.60;22.67;;;;;;;12.83;59.61;101792.88;5159627;27;20922;-46
2021/04/19 06:52:33;;;;;;;49.30;23.07;;;;;;;13.20;58.41;101789.47;5159993;27;20487;-47
2021/04/19 06:55:00;;;;;;;47.63;23.53;;;;;;;13.27;58.49;101793.22;5159262;27;20427;-50
2021/04/19 06:57:34;;;;;;;46.23;24.30;;;;;;;12.98;59.28;101803.09;5160492;27;20489;-46
2021/04/19 07:00:04;;;;;;;52.03;25.27;;;;;;;13.25;58.92;101797.47;5159824;27;20900;-47
2021/04/19 07:02:33;;;;;;;45.17;23.33;;;;;;;13.51;58.45;101800.41;5159854;27;20828;-48
2021/04/19 07:05:00;;;;;;;48.33;22.93;;;;;;;13.55;58.15;101804.03;5159366;27;20472;-50
2021/04/19 07:07:30;;;;;;;47.03;22.93;;;;;;;13.17;58.79;101804.00;5160309;27;21055;-48
2021/04/19 07:09:58;;;;;;;44.47;21.67;;;;;;;13.32;58.80;101799.53;5159305;27;20472;-49
2021/04/19 07:12:27;;;;;;;53.10;23.83;;;;;;;13.45;58.97;101807.88;5159904;27;20805;-50
2021/04/19 07:14:54;;;;;;;45.60;24.30;;;;;;;13.61;58.61;101806.91;5159311;27;20460;-50
2021/04/19 07:17:22;;;;;;;46.60;22.70;;;;;;;13.64;58.34;101801.84;5159823;27;20509;-49
2021/04/19 07:19:50;;;;;;;40.00;20.80;;;;;;;13.33;58.64;101801.28;5159303;27;20504;-46
2021/04/19 07:22:17;;;;;;;42.63;20.40;;;;;;;13.43;58.72;101797.41;5159667;27;20525;-50
2021/04/19 07:24:44;;;;;;;39.93;22.13;;;;;;;13.59;58.49;101793.88;5155633;27;20450;-46
2021/04/19 07:27:13;;;;;;;44.33;20.87;;;;;;;13.39;58.66;101794.63;5159685;27;20453;-50
2021/04/19 07:29:41;;;;;;;46.93;22.00;;;;;;;13.45;58.36;101789.72;5159147;27;20916;-46
2021/04/19 07:32:07;;;;;;;46.67;21.70;;;;;;;13.68;58.35;101797.72;5159126;27;20785;-48
2021/04/19 07:34:35;;;;;;;68.93;32.90;;;;;;;13.48;58.54;101795.06;5158711;27;20867;-49
2021/04/19 07:37:03;;;;;;;56.00;28.13;;;;;;;13.43;58.57;101796.56;5159442;27;20469;-46
2021/04/19 07:39:32;;;;;;;40.13;20.30;;;;;;;13.37;59.05;101797.13;5158712;27;20522;-53
2021/04/19 07:41:59;;;;;;;46.97;23.17;;;;;;;13.55;58.90;101802.34;5159166;27;20493;-49
2021/04/19 07:44:37;;;;;;;50.77;24.63;;;;;;;13.64;58.89;101799.25;5159571;27;20462;-49
2021/04/19 07:47:26;;;;;;;37.07;19.90;;;;;;;13.59;58.46;101798.19;5159190;27;20459;-47
2021/04/19 07:50:15;;;;;;;40.80;20.90;;;;;;;13.89;57.90;101806.44;5158505;27;20470;-48
2021/04/19 07:52:53;;;;;;;38.37;18.87;;;;;;;13.46;59.05;101801.91;5158891;27;20558;-49
2021/04/19 07:55:22;;;;;;;40.60;20.60;;;;;;;13.84;58.30;101804.47;5158295;27;20943;-51
2021/04/19 07:58:07;;;;;;;40.77;21.93;;;;;;;13.73;58.51;101801.38;5159097;27;20477;-52
2021/04/19 08:00:35;;;;;;;41.37;21.10;;;;;;;14.14;57.51;101797.16;5157299;27;20478;-52
2021/04/19 08:03:04;;;;;;;42.03;21.47;;;;;;;13.97;57.98;101798.13;5154333;27;20477;-51
2021/04/19 08:05:37;;;;;;;40.07;21.97;;;;;;;14.20;57.52;101793.94;5158560;27;20470;-51
2021/04/19 08:08:04;;;;;;;44.93;20.47;;;;;;;14.27;56.72;101793.41;5159255;27;20769;-52
2021/04/19 08:10:32;;;;;;;43.00;20.17;;;;;;;14.23;56.99;101795.78;5157975;27;20472;-51
2021/04/19 08:13:07;;;;;;;53.07;25.67;;;;;;;14.35;56.79;101793.72;5158549;27;20489;-51
2021/04/19 08:15:35;;;;;;;48.13;23.87;;;;;;;14.45;56.08;101787.19;5158376;27;20783;-47
2021/04/19 08:18:06;;;;;;;62.97;30.30;;;;;;;14.61;56.47;101791.31;5158982;27;20482;-50
2021/04/19 08:20:33;;;;;;;58.20;28.37;;;;;;;14.44;57.20;101788.94;5157840;27;20900;-51
2021/04/19 08:23:12;;;;;;;44.80;22.40;;;;;;;14.83;56.10;101792.25;5158105;27;20964;-50
2021/04/19 08:25:42;;;;;;;39.27;20.60;;;;;;;14.72;55.82;101797.00;5157885;27;20474;-52
2021/04/19 08:28:13;;;;;;;72.77;35.83;;;;;;;14.78;56.29;101804.16;5158561;27;20462;-50
2021/04/19 08:30:40;;;;;;;38.07;20.50;;;;;;;15.33;55.00;101795.06;5154054;27;20464;-51
2021/04/19 08:33:10;;;;;;;36.07;19.70;;;;;;;15.25;54.92;101793.91;5136944;27;20483;-52
2021/04/19 08:35:37;;;;;;;31.80;17.50;;;;;;;15.12;55.22;101789.91;5136398;27;20464;-51
2021/04/19 08:38:05;;;;;;;35.00;18.53;;;;;;;15.16;55.46;101791.81;5136948;27;20554;-50
2021/04/19 08:40:34;;;;;;;31.30;17.33;;;;;;;15.15;54.89;101794.34;5136084;27;20559;-51
2021/04/19 08:43:03;;;;;;;33.10;18.10;;;;;;;15.35;54.36;101797.75;5136841;27;20503;-49
2021/04/19 08:45:30;;;;;;;32.47;18.60;;;;;;;15.39;54.71;101797.03;5134060;27;20547;-53
2021/04/19 08:48:00;;;;;;;34.80;19.20;;;;;;;15.06;54.76;101800.97;5137196;27;20472;-49
2021/04/19 08:50:28;;;;;;;33.77;17.70;;;;;;;15.08;55.30;101798.44;5135918;27;20559;-48
2021/04/19 08:52:56;;;;;;;34.40;18.33;;;;;;;15.15;54.99;101794.34;5133014;27;20822;-51
2021/04/19 08:55:24;;;;;;;37.10;19.67;;;;;;;14.83;55.40;101798.31;5135184;27;20476;-51
2021/04/19 08:57:52;;;;;;;34.20;18.20;;;;;;;14.76;55.72;101805.81;5146211;27;20478;-50
2021/04/19 09:00:22;;;;;;;30.60;17.93;;;;;;;14.96;55.75;101804.00;5146134;27;20501;-50
2021/04/19 09:02:48;;;;;;;42.73;21.53;;;;;;;15.07;55.82;101804.47;5157281;27;20582;-50
2021/04/19 09:05:16;;;;;;;35.30;18.27;;;;;;;14.89;55.63;101810.69;5154570;27;20940;-48
2021/04/19 09:07:46;;;;;;;37.60;19.70;;;;;;;15.34;54.28;101801.19;5157142;27;20447;-49
2021/04/19 09:10:14;;;;;;;34.93;18.60;;;;;;;15.66;53.24;101804.97;5156484;27;20507;-48
2021/04/19 09:12:45;;;;;;;35.97;19.50;;;;;;;15.91;53.34;101805.03;5153230;27;20483;-50
2021/04/19 09:15:25;;;;;;;33.50;18.47;;;;;;;15.84;53.65;101805.63;5136115;27;20555;-49
2021/04/19 09:18:17;;;;;;;30.83;18.10;;;;;;;15.77;53.59;101802.81;5139585;27;20528;-48
2021/04/19 09:20:48;;;;;;;38.47;18.53;;;;;;;16.08;52.74;101796.94;5131007;27;20476;-47
2021/04/19 09:23:26;;;;;;;31.87;18.33;;;;;;;15.89;53.29;101791.94;5127047;27;20482;-48
2021/04/19 09:25:54;;;;;;;32.93;18.63;;;;;;;16.69;52.41;101794.69;5135433;27;20767;-47
2021/04/19 09:28:54;;;;;;;31.30;18.10;;;;;;;16.47;51.67;101797.44;5136621;27;20448;-49
2021/04/19 09:31:54;;;;;;;29.47;16.83;;;;;;;15.85;53.57;101799.59;5152930;27;20470;-53
2021/04/19 09:34:39;;;;;;;27.30;16.23;;;;;;;16.62;52.14;101805.75;5152939;27;20459;-47
2021/04/19 09:37:06;;;;;;;26.17;15.20;;;;;;;16.98;52.13;101800.84;5135717;27;20931;-48
2021/04/19 09:39:48;;;;;;;30.90;16.47;;;;;;;17.13;50.98;101804.81;5135361;27;20452;-50
2021/04/19 09:42:16;;;;;;;27.93;16.83;;;;;;;17.03;50.47;101806.25;5135777;27;20492;-48
2021/04/19 09:44:53;;;;;;;28.73;16.80;;;;;;;17.36;50.98;101802.91;5135827;27;20542;-49
2021/04/19 09:47:48;;;;;;;32.77;18.10;;;;;;;17.68;50.30;101800.38;5136500;27;20535;-48
2021/04/19 09:50:15;;;;;;;31.77;17.33;;;;;;;17.39;50.54;101802.97;5135111;27;20961;-48
2021/04/19 09:52:43;;;;;;;27.87;16.60;;;;;;;17.61;50.17;101798.44;5136070;27;20476;-47
2021/04/19 09:55:12;;;;;;;32.00;17.90;;;;;;;17.71;50.22;101806.50;5134775;27;20579;-48
2021/04/19 09:57:39;;;;;;;36.37;20.43;;;;;;;18.24;48.50;101794.94;5136300;27;20570;-47
2021/04/19 10:00:07;;;;;;;32.37;18.67;;;;;;;18.20;49.27;101799.22;5137943;27;20467;-48
2021/04/19 10:02:35;;;;;;;28.93;17.13;;;;;;;18.17;48.98;101789.56;5135518;27;20794;-49
2021/04/19 10:05:03;;;;;;;29.43;17.90;;;;;;;17.86;49.87;101796.53;5148254;27;20946;-47
2021/04/19 10:07:32;;;;;;;32.80;19.10;;;;;;;18.26;49.09;101788.94;5157087;27;20538;-51
2021/04/19 10:10:00;;;;;;;35.10;19.43;;;;;;;18.53;48.84;101784.34;5156048;27;20469;-48
2021/04/19 10:12:29;;;;;;;25.37;15.20;;;;;;;18.12;49.05;101787.66;5156530;27;20561;-48
2021/04/19 10:14:56;;;;;;;26.33;15.53;;;;;;;18.39;49.01;101789.22;5147859;27;20495;-49
2021/04/19 10:17:23;;;;;;;26.97;16.40;;;;;;;18.65;48.27;101786.41;5135862;28;20482;-48
2021/04/19 10:19:49;;;;;;;30.40;17.60;;;;;;;19.13;47.25;101791.03;5136197;27;20468;-50
2021/04/19 10:22:17;;;;;;;21.87;14.17;;;;;;;19.06;46.83;101783.03;5139861;27;20571;-47
2021/04/19 10:24:50;;;;;;;24.23;14.97;;;;;;;19.38;46.70;101786.34;5139182;27;20820;-49
2021/04/19 10:27:23;;;;;;;29.73;18.20;;;;;;;19.12;46.79;101784.03;5140136;27;20463;-49
2021/04/19 10:29:50;;;;;;;23.67;13.73;;;;;;;18.95;47.47;101774.88;5139213;27;21663;-51
2021/04/19 10:32:27;;;;;;;21.77;13.70;;;;;;;20.01;45.92;101770.19;5139622;27;20565;-52
2021/04/19 10:34:54;;;;;;;22.80;14.73;;;;;;;19.43;47.00;101771.63;5138755;27;20916;-48
2021/04/19 10:37:21;;;;;;;27.37;16.80;;;;;;;19.56;46.62;101764.03;5140019;27;20486;-51
2021/04/19 10:39:48;;;;;;;23.97;15.07;;;;;;;19.90;46.55;101758.59;5138827;27;20465;-48
2021/04/19 10:42:22;;;;;;;26.67;16.77;;;;;;;20.29;44.63;101757.56;5139237;27;20481;-51
2021/04/19 10:44:50;;;;;;;23.37;14.63;;;;;;;19.86;45.91;101767.22;5138468;27;20791;-49
2021/04/19 10:47:26;;;;;;;24.20;14.40;;;;;;;19.12;47.22;101767.47;5139649;27;20475;-48
2021/04/19 10:49:53;;;;;;;20.53;13.60;;;;;;;19.47;46.72;101764.72;5138489;27;20470;-49
2021/04/19 10:52:19;;;;;;;22.77;14.20;;;;;;;19.39;47.13;101761.06;5139268;27;20472;-48
2021/04/19 10:54:46;;;;;;;27.70;16.60;;;;;;;19.93;46.20;101754.28;5137973;27;20520;-50
2021/04/19 10:57:21;;;;;;;23.77;15.17;;;;;;;20.14;45.79;101757.31;5139397;27;20453;-47
2021/04/19 10:59:48;;;;;;;27.07;15.13;;;;;;;19.90;45.68;101750.72;5139083;27;20457;-49
2021/04/19 11:02:15;;;;;;;19.83;11.90;;;;;;;19.64;44.88;101753.72;5139049;27;20482;-47
2021/04/19 11:04:42;;;;;;;17.00;11.70;;;;;;;19.98;44.78;101746.53;5148723;27;20469;-48
2021/04/19 11:07:22;;;;;;;23.50;15.50;;;;;;;20.49;43.90;101744.81;5143821;27;20462;-49
2021/04/19 11:09:49;;;;;;;19.60;12.80;;;;;;;20.07;44.13;101743.22;5140854;27;20450;-53
2021/04/19 11:12:16;;;;;;;29.87;15.47;;;;;;;20.33;43.99;101748.00;5138643;27;20489;-47
2021/04/19 11:14:42;;;;;;;18.90;12.00;;;;;;;20.62;43.68;101740.63;5138775;27;20455;-53
2021/04/19 11:17:09;;;;;;;18.57;12.43;;;;;;;20.50;44.77;101740.44;5138924;27;20469;-47
2021/04/19 11:19:41;;;;;;;21.53;12.50;;;;;;;21.17;42.91;101739.69;5138106;27;20521;-52